»·PEaware :: UAL576 KPSP-KRNO

UAL576 :: KPSP-KRNO

FLIGHT INFORMATION

Flight Status: Arrived
Operator:
United Airlines
More flights by this operator :: More flights under this callsign
Pilot: Anonymous 8274 (8274)
Aircraft: BOEING 737-200
(B732)
More flights by this aircraft type
Origin: KPSP Palm Springs Intl
United States
Destination: KRNO Reno/Tahoe Intl
United States
More flights between these airports :: More routes between these airports
Route: +CATH1 PSP V386 PMD J6 SNS J126 SAC SIER3
File this flight plan on PilotEdge
Remarks:
Altitude:
(Current/Filed)
30,000ft
Speed:
(Current/Filed)
460kts
Departed: 27-Apr-19 07:28 PM
Arrived: 27-Apr-19 09:07 PM
Distance/Time
Traveled:
375nm/1:39
Distance/Time
To Go:
Arrived

Flight Plot

Page will automatically refresh every two minutes.


Map Options




Map Legend


Flown Route
Filed Route
Departure Airport
Arrival Airport
Navaid (VOR, NDB)
Fix

Horizontal Profiles

Position Reports

Time Latitude Longitude Heading Altitude Ground
Speed
27-Apr-19 18:09 33.823448 -116.505890 253 486ft 0kts
27-Apr-19 18:10 33.823448 -116.505890 253 486ft 0kts
27-Apr-19 18:11 33.823448 -116.505890 253 486ft 0kts
27-Apr-19 18:12 33.823448 -116.505890 253 486ft 0kts
27-Apr-19 18:13 33.823448 -116.505890 253 486ft 0kts
27-Apr-19 18:15 33.823448 -116.505890 253 486ft 0kts
27-Apr-19 18:16 33.823448 -116.505890 253 486ft 0kts
27-Apr-19 18:17 33.823448 -116.505890 253 486ft 0kts
27-Apr-19 18:18 33.823448 -116.505890 253 486ft 0kts
27-Apr-19 18:19 33.823448 -116.505890 253 486ft 0kts
27-Apr-19 18:20 33.823448 -116.505890 253 486ft 0kts
27-Apr-19 18:21 33.823448 -116.505890 253 486ft 0kts
27-Apr-19 18:22 33.823448 -116.505890 253 486ft 0kts
27-Apr-19 18:23 33.823448 -116.505890 253 486ft 0kts
27-Apr-19 18:24 33.823448 -116.505890 253 486ft 0kts
27-Apr-19 18:25 33.823448 -116.505890 253 486ft 0kts
27-Apr-19 18:26 33.823448 -116.505890 253 486ft 0kts
27-Apr-19 18:27 33.823448 -116.505890 253 486ft 0kts
27-Apr-19 18:28 33.823448 -116.505890 253 486ft 0kts
27-Apr-19 18:29 33.823448 -116.505890 253 486ft 0kts
27-Apr-19 18:30 33.823448 -116.505890 253 486ft 0kts
27-Apr-19 18:31 33.823448 -116.505890 253 486ft 0kts
27-Apr-19 18:32 33.823448 -116.505890 253 486ft 0kts
27-Apr-19 18:33 33.823448 -116.505890 253 486ft 0kts
27-Apr-19 18:34 33.823448 -116.505890 253 486ft 0kts
27-Apr-19 18:34 33.823448 -116.505890 253 486ft 0kts
27-Apr-19 18:36 33.823448 -116.505890 253 486ft 0kts
27-Apr-19 18:36 33.823448 -116.505890 253 486ft 0kts
27-Apr-19 18:37 33.823448 -116.505890 253 486ft 0kts
27-Apr-19 18:39 33.823448 -116.505890 253 486ft 0kts
27-Apr-19 18:39 33.823448 -116.505890 253 486ft 0kts
27-Apr-19 18:40 33.823448 -116.505890 253 486ft 0kts
27-Apr-19 18:41 33.823448 -116.505890 253 486ft 0kts
27-Apr-19 18:42 33.823448 -116.505890 253 486ft 0kts
27-Apr-19 18:43 33.823448 -116.505890 253 486ft 0kts
27-Apr-19 18:44 33.823448 -116.505890 253 486ft 0kts
27-Apr-19 18:45 33.823448 -116.505890 253 486ft 0kts
27-Apr-19 18:46 33.823448 -116.505890 253 486ft 0kts
27-Apr-19 18:47 33.823448 -116.505890 253 486ft 0kts
27-Apr-19 18:48 33.823448 -116.505890 253 486ft 0kts
27-Apr-19 18:49 33.823448 -116.505890 253 486ft 0kts
27-Apr-19 18:50 33.823448 -116.505890 253 486ft 0kts
27-Apr-19 18:51 33.823448 -116.505890 253 486ft 0kts
27-Apr-19 18:52 33.823448 -116.505890 253 486ft 0kts
27-Apr-19 18:53 33.823448 -116.505890 253 486ft 0kts
27-Apr-19 18:54 33.823448 -116.505890 253 486ft 0kts
27-Apr-19 18:55 33.823448 -116.505890 253 486ft 0kts
27-Apr-19 18:56 33.823448 -116.505890 253 486ft 0kts
27-Apr-19 18:57 33.823448 -116.505890 253 486ft 0kts
27-Apr-19 18:58 33.823448 -116.505890 253 486ft 0kts
27-Apr-19 18:59 33.823448 -116.505890 253 486ft 0kts
27-Apr-19 19:00 33.823448 -116.505890 253 486ft 0kts
27-Apr-19 19:01 33.823448 -116.505890 253 486ft 0kts
27-Apr-19 19:02 33.823448 -116.505890 253 486ft 0kts
27-Apr-19 19:03 33.823448 -116.505890 253 486ft 0kts
27-Apr-19 19:04 33.823448 -116.505890 253 486ft 0kts
27-Apr-19 19:05 33.823448 -116.505890 253 486ft 0kts
27-Apr-19 19:06 33.823448 -116.505890 253 486ft 0kts
27-Apr-19 19:07 33.823448 -116.505890 253 486ft 0kts
27-Apr-19 19:08 33.823448 -116.505890 253 486ft 0kts
27-Apr-19 19:09 33.823448 -116.505890 253 486ft 0kts
27-Apr-19 19:10 33.823448 -116.505890 253 486ft 0kts
27-Apr-19 19:11 33.823448 -116.505890 253 486ft 0kts
27-Apr-19 19:12 33.823448 -116.505890 253 486ft 0kts
27-Apr-19 19:13 33.823447 -116.505894 253 486ft 0kts
27-Apr-19 19:14 33.823615 -116.505479 211 486ft 2kts
27-Apr-19 19:15 33.823952 -116.505493 145 486ft 0kts
27-Apr-19 19:16 33.823952 -116.505493 145 486ft 0kts
27-Apr-19 19:17 33.823952 -116.505493 145 486ft 0kts
27-Apr-19 19:18 33.823952 -116.505493 145 486ft 0kts
27-Apr-19 19:19 33.823924 -116.505470 145 486ft 0kts
27-Apr-19 19:20 33.823008 -116.503979 93 486ft 9kts
27-Apr-19 19:21 33.820456 -116.501490 143 486ft 13kts
27-Apr-19 19:22 33.818519 -116.499139 89 486ft 0kts
27-Apr-19 19:23 33.818519 -116.499139 89 486ft 0kts
27-Apr-19 19:24 33.818519 -116.499139 89 486ft 0kts
27-Apr-19 19:25 33.818519 -116.499139 89 486ft 0kts
27-Apr-19 19:26 33.818887 -116.498164 356 486ft 8kts
27-Apr-19 19:27 33.834676 -116.511895 324 901ft 136kts
27-Apr-19 19:28 33.869114 -116.543138 322 2384ft 193kts
27-Apr-19 19:29 33.923502 -116.571231 15 4703ft 259kts
27-Apr-19 19:30 33.946404 -116.493912 123 7398ft 286kts
27-Apr-19 19:31 33.879734 -116.437009 148 9951ft 312kts
27-Apr-19 19:32 33.832034 -116.352014 99 12607ft 333kts
27-Apr-19 19:33 33.793684 -116.247971 125 13972ft 346kts
27-Apr-19 19:34 33.714991 -116.226806 223 13946ft 294kts
27-Apr-19 19:35 33.715706 -116.305761 319 13958ft 277kts
27-Apr-19 19:36 33.782113 -116.358520 323 13974ft 308kts
27-Apr-19 19:37 33.857804 -116.420133 321 16080ft 332kts
27-Apr-19 19:38 33.946696 -116.457188 343 18290ft 354kts
27-Apr-19 19:39 34.040316 -116.494264 333 20235ft 358kts
27-Apr-19 19:40 34.135100 -116.535317 341 21999ft 373kts
27-Apr-19 19:41 34.238206 -116.561903 341 23565ft 383kts
27-Apr-19 19:42 34.341578 -116.594209 336 25068ft 385kts
27-Apr-19 19:43 34.444485 -116.631479 333 26515ft 385kts
27-Apr-19 19:44 34.528232 -116.699971 286 27732ft 354kts
27-Apr-19 19:45 34.512068 -116.816415 265 28895ft 356kts
27-Apr-19 19:46 34.516073 -116.935770 276 29837ft 358kts
27-Apr-19 19:47 34.526233 -117.057066 276 29902ft 363kts
27-Apr-19 19:48 34.541364 -117.178747 279 29938ft 366kts
27-Apr-19 19:49 34.558513 -117.300837 279 29934ft 366kts
27-Apr-19 19:50 34.575538 -117.422367 278 29931ft 365kts
27-Apr-19 19:51 34.588557 -117.544185 277 29929ft 363kts
27-Apr-19 19:52 34.595916 -117.666266 274 29915ft 363kts
27-Apr-19 19:53 34.602904 -117.789085 277 29875ft 365kts
27-Apr-19 19:54 34.617907 -117.911202 278 29860ft 366kts
27-Apr-19 19:55 34.634794 -118.032337 293 29898ft 368kts
27-Apr-19 19:56 34.691869 -118.136038 297 29911ft 369kts
27-Apr-19 19:57 34.747168 -118.241648 307 29895ft 376kts
27-Apr-19 19:58 34.823690 -118.329202 308 29885ft 377kts
27-Apr-19 19:59 34.889736 -118.426330 302 29904ft 370kts
27-Apr-19 20:00 34.950562 -118.526659 301 30009ft 366kts
27-Apr-19 20:01 35.019626 -118.618918 302 30000ft 367kts
27-Apr-19 20:02 35.069132 -118.724037 294 30025ft 362kts
27-Apr-19 20:03 35.118124 -118.832418 295 30026ft 364kts
27-Apr-19 20:04 35.167284 -118.941062 295 30024ft 365kts
27-Apr-19 20:05 35.216590 -119.049914 295 29961ft 368kts
27-Apr-19 20:06 35.266332 -119.159601 296 29857ft 371kts
27-Apr-19 20:07 35.320063 -119.267601 297 29855ft 371kts
27-Apr-19 20:08 35.374017 -119.375378 297 29852ft 371kts
27-Apr-19 20:09 35.427930 -119.482896 297 29850ft 370kts
27-Apr-19 20:10 35.481837 -119.590213 297 29848ft 370kts
27-Apr-19 20:11 35.534431 -119.694898 297 29864ft 369kts
27-Apr-19 20:12 35.580806 -119.806699 289 29864ft 367kts
27-Apr-19 20:13 35.620006 -119.922892 294 29859ft 370kts
27-Apr-19 20:14 35.665400 -120.036337 289 29861ft 368kts
27-Apr-19 20:15 35.676256 -120.156615 248 29862ft 379kts
27-Apr-19 20:16 35.616180 -120.265431 242 29927ft 384kts
27-Apr-19 20:17 35.555873 -120.373160 249 29922ft 378kts
27-Apr-19 20:18 35.578159 -120.485164 314 29945ft 379kts
27-Apr-19 20:19 35.664317 -120.561323 316 29929ft 383kts
27-Apr-19 20:20 35.751045 -120.637241 316 29927ft 383kts
27-Apr-19 20:21 35.834948 -120.713887 311 29947ft 380kts
27-Apr-19 20:22 35.914609 -120.800253 311 29943ft 382kts
27-Apr-19 20:23 35.994288 -120.886813 311 29941ft 384kts
27-Apr-19 20:24 36.074950 -120.974503 311 29939ft 385kts
27-Apr-19 20:25 36.155240 -121.061825 311 29940ft 386kts
27-Apr-19 20:26 36.236173 -121.149872 311 29976ft 386kts
27-Apr-19 20:27 36.316859 -121.237563 311 29990ft 387kts
27-Apr-19 20:29 36.397837 -121.325574 312 29989ft 387kts
27-Apr-19 20:30 36.478906 -121.413664 312 29987ft 388kts
27-Apr-19 20:31 36.563068 -121.498337 314 29985ft 389kts
27-Apr-19 20:32 36.648745 -121.580971 325 29967ft 401kts
27-Apr-19 20:33 36.766586 -121.585387 354 29983ft 440kts
27-Apr-19 20:34 36.888929 -121.572810 352 29981ft 437kts
27-Apr-19 20:35 37.009983 -121.567896 351 29982ft 436kts
27-Apr-19 20:36 37.129811 -121.563145 351 29985ft 436kts
27-Apr-19 20:37 37.249439 -121.563125 348 29985ft 432kts
27-Apr-19 20:38 37.369465 -121.566523 348 29985ft 433kts
27-Apr-19 20:39 37.489674 -121.570020 348 29911ft 436kts
27-Apr-19 20:40 37.610496 -121.573815 348 29876ft 437kts
27-Apr-19 20:41 37.732051 -121.575454 351 29876ft 441kts
27-Apr-19 20:42 37.854709 -121.565222 355 29875ft 447kts
27-Apr-19 20:43 37.978037 -121.549744 353 29873ft 444kts
27-Apr-19 20:44 38.099587 -121.542240 352 29874ft 441kts
27-Apr-19 20:45 38.219931 -121.534996 352 29878ft 442kts
27-Apr-19 20:46 38.342125 -121.527603 352 29877ft 442kts
27-Apr-19 20:47 38.461280 -121.491962 30 29877ft 477kts
27-Apr-19 20:48 38.554650 -121.370974 33 29880ft 476kts
27-Apr-19 20:48 38.635993 -121.275305 33 29881ft 476kts
27-Apr-19 20:49 38.733299 -121.160761 33 29899ft 476kts
27-Apr-19 20:51 38.846073 -121.027909 33 28688ft 467kts
27-Apr-19 20:51 38.925310 -120.936680 33 27180ft 453kts
27-Apr-19 20:52 39.018088 -120.831527 36 25348ft 442kts
27-Apr-19 20:53 39.101573 -120.724133 39 23721ft 428kts
27-Apr-19 20:54 39.178652 -120.616317 42 22084ft 417kts
27-Apr-19 20:55 39.253628 -120.506518 42 19665ft 398kts
27-Apr-19 20:56 39.324868 -120.401876 41 17159ft 379kts
27-Apr-19 20:57 39.390844 -120.309533 41 16107ft 367kts
27-Apr-19 20:58 39.429889 -120.185925 73 15595ft 383kts
27-Apr-19 20:59 39.453768 -120.052242 74 13993ft 374kts
27-Apr-19 21:00 39.478075 -119.932720 73 13136ft 310kts
27-Apr-19 21:01 39.511401 -119.835156 29 10142ft 293kts
27-Apr-19 21:02 39.586737 -119.819982 32 7021ft 271kts
27-Apr-19 21:03 39.590686 -119.740839 148 5835ft 235kts
27-Apr-19 21:04 39.551555 -119.759286 237 5506ft 135kts
27-Apr-19 21:05 39.513444 -119.769156 186 4496ft 147kts
27-Apr-19 21:06 39.489472 -119.769466 219 4418ft 13kts
27-Apr-19 21:07 39.489302 -119.770460 304 4417ft 0kts
27-Apr-19 21:08 39.490467 -119.770702 0 4418ft 19kts
27-Apr-19 21:09 39.498690 -119.770686 359 4417ft 34kts
27-Apr-19 21:10 39.507463 -119.770642 357 4417ft 16kts
27-Apr-19 21:11 39.507533 -119.772933 182 4417ft 6kts

Navigation Log

Ident Type
Flight plan parsing failed, navigation log unavailable